Terminal Aerodrome Forecast
Issued by NWS

Home | Current Version | Previous Version | Text Only | Print | Product List | Glossary On
Versions: 1 2 3 4 5 6 7 8 9 10 11 12 13
000
FTUS45 KCYS 110520
TAFLAR
TAF
KLAR 110520Z 1106/1206 31010KT P6SM VCSH OVC040
      TEMPO 1106/1108 2SM -SHSN OVC025
     FM110800 28015G25KT 2SM -SN SCT007 OVC012
     FM111200 27022G32KT P6SM SCT015 OVC050
     FM120000 27015KT P6SM SCT050=

USA.gov is the U.S. government's official web portal to all federal, state and local government web resources and services.